Time;durP1;ratioP1;P1;durP2;ratioP2;P2;SDS_P1;SDS_P2;PMS_P1;PMS_P2;Temp;Humidity;BMP_temperature;BMP_pressure;BME280_temperature;BME280_humidity;BME280_pressure;Samples;Min_cycle;Max_cycle;Signal;HPM_P1;HPM_P2
2023/05/06 00:01:47;;;;;;;9.73;5.63;;;;;;;;;;4374709;32;316517;-90
2023/05/06 00:04:15;;;;;;;10.63;6.10;;;;;;;;;;4390834;32;316829;-90
2023/05/06 00:06:44;;;;;;;12.03;4.97;;;;;;;;;;4382153;32;317723;-90
2023/05/06 00:09:11;;;;;;;7.57;6.37;;;;;;;;;;4406030;32;317482;-90
2023/05/06 00:11:38;;;;;;;6.43;5.00;;;;;;;;;;4395960;32;316377;-90
2023/05/06 00:14:05;;;;;;;9.67;4.93;;;;;;;;;;4405164;32;316521;-90
2023/05/06 00:16:32;;;;;;;6.87;4.57;;;;;;;;;;4368502;32;316643;-90
2023/05/06 00:18:59;;;;;;;5.10;4.20;;;;;;;;;;4396715;32;316328;-90
2023/05/06 00:21:27;;;;;;;4.72;4.28;;;;;;;;;;4392384;32;353576;-90
2023/05/06 00:23:55;;;;;;;8.73;4.47;;;;;;;;;;4405833;32;316584;-90
2023/05/06 00:26:24;;;;;;;6.23;4.50;;;;;;;;;;4396533;32;316462;-90
2023/05/06 00:28:51;;;;;;;5.77;5.17;;;;;;;;;;4379687;32;388290;-91
2023/05/06 00:31:18;;;;;;;5.90;5.30;;;;;;;;;;4397513;32;316554;-90
2023/05/06 00:33:45;;;;;;;6.82;5.22;;;;;;;;;;4359555;32;316567;-90
2023/05/06 00:36:12;;;;;;;5.30;4.80;;;;;;;;;;4387294;32;316538;-90
2023/05/06 00:38:40;;;;;;;6.03;5.20;;;;;;;;;;4393971;32;316899;-90
2023/05/06 00:41:12;;;;;;;10.67;6.77;;;;;;;;;;4405483;32;316512;-90
2023/05/06 00:43:39;;;;;;;10.48;6.78;;;;;;;;;;4397499;32;317680;-90
2023/05/06 00:46:09;;;;;;;8.65;7.78;;;;;;;;;;4405127;32;317196;-88
2023/05/06 00:48:36;;;;;;;12.37;7.07;;;;;;;;;;4395466;32;316697;-90
2023/05/06 00:51:05;;;;;;;6.10;5.50;;;;;;;;;;4391373;32;317469;-90
2023/05/06 00:53:33;;;;;;;10.15;5.40;;;;;;;;;;4384990;32;316480;-90
2023/05/06 00:56:01;;;;;;;5.10;4.60;;;;;;;;;;4390999;32;317911;-91
2023/05/06 00:58:30;;;;;;;4.50;4.10;;;;;;;;;;4395723;32;316378;-91
2023/05/06 01:00:57;;;;;;;6.67;4.30;;;;;;;;;;4415244;32;316545;-90
2023/05/06 01:03:24;;;;;;;6.37;4.00;;;;;;;;;;4408021;32;315067;-91
2023/05/06 01:06:00;;;;;;;4.97;4.47;;;;;;;;;;4399962;32;414631;-90
2023/05/06 01:08:36;;;;;;;4.73;4.33;;;;;;;;;;4388890;32;316929;-90
2023/05/06 01:11:10;;;;;;;4.50;4.10;;;;;;;;;;4405649;32;316282;-90
2023/05/06 01:13:47;;;;;;;5.07;4.40;;;;;;;;;;4396360;32;316605;-89
2023/05/06 01:16:15;;;;;;;5.50;3.90;;;;;;;;;;4397369;32;316228;-89
2023/05/06 01:18:44;;;;;;;5.00;4.03;;;;;;;;;;4380688;32;316408;-91
2023/05/06 01:21:13;;;;;;;4.93;4.17;;;;;;;;;;4404923;32;316601;-90
2023/05/06 01:23:56;;;;;;;6.30;4.43;;;;;;;;;;4380187;32;316341;-91
2023/05/06 01:26:24;;;;;;;9.80;4.63;;;;;;;;;;4395280;32;316366;-90
2023/05/06 01:28:51;;;;;;;6.37;3.90;;;;;;;;;;4384014;32;416567;-90
2023/05/06 01:31:26;;;;;;;5.30;4.60;;;;;;;;;;4404345;32;316314;-90
2023/05/06 01:34:05;;;;;;;4.93;4.50;;;;;;;;;;4390280;32;415684;-91
2023/05/06 01:36:41;;;;;;;11.13;5.57;;;;;;;;;;4395445;32;316329;-91
2023/05/06 01:39:16;;;;;;;6.73;5.00;;;;;;;;;;4391342;32;317702;-90
2023/05/06 01:41:47;;;;;;;10.17;4.77;;;;;;;;;;4393493;32;316398;-90
2023/05/06 01:44:16;;;;;;;6.53;5.30;;;;;;;;;;4390104;32;317366;-90
2023/05/06 01:46:45;;;;;;;10.07;4.77;;;;;;;;;;4393337;32;316502;-90
2023/05/06 01:49:16;;;;;;;9.93;5.03;;;;;;;;;;4390660;32;317385;-90
2023/05/06 01:51:49;;;;;;;8.70;4.77;;;;;;;;;;4381103;32;316435;-90
2023/05/06 01:54:18;;;;;;;6.33;4.93;;;;;;;;;;4390955;32;316331;-90
2023/05/06 01:56:45;;;;;;;6.33;5.10;;;;;;;;;;4380599;32;316473;-90
2023/05/06 01:59:12;;;;;;;6.10;5.17;;;;;;;;;;4390463;32;316520;-90
2023/05/06 02:01:39;;;;;;;8.13;4.73;;;;;;;;;;4394207;32;316666;-90
2023/05/06 02:04:06;;;;;;;4.93;4.43;;;;;;;;;;4390585;32;316320;-91
2023/05/06 02:06:33;;;;;;;6.03;5.37;;;;;;;;;;4378789;32;316401;-90
2023/05/06 02:09:01;;;;;;;8.80;5.00;;;;;;;;;;4376894;32;316467;-90
2023/05/06 02:11:30;;;;;;;5.00;4.43;;;;;;;;;;4380262;32;316367;-89
2023/05/06 02:13:57;;;;;;;5.63;4.00;;;;;;;;;;4403785;32;316855;-90
2023/05/06 02:16:27;;;;;;;7.00;4.65;;;;;;;;;;4396510;32;316602;-90
2023/05/06 02:18:54;;;;;;;6.00;5.27;;;;;;;;;;4389778;32;417283;-90
2023/05/06 02:21:21;;;;;;;5.80;5.20;;;;;;;;;;4389915;32;316596;-90
2023/05/06 02:23:48;;;;;;;5.67;4.47;;;;;;;;;;4378209;32;316263;-91
2023/05/06 02:26:16;;;;;;;5.95;4.93;;;;;;;;;;4402269;32;316810;-89
2023/05/06 02:28:49;;;;;;;9.20;5.53;;;;;;;;;;4392059;32;316586;-90
2023/05/06 02:31:16;;;;;;;5.68;4.82;;;;;;;;;;4403112;32;316470;-90
2023/05/06 02:33:45;;;;;;;8.40;5.30;;;;;;;;;;4391022;32;344765;-90
2023/05/06 02:36:12;;;;;;;7.30;6.57;;;;;;;;;;4389515;32;316607;-90
2023/05/06 02:38:38;;;;;;;7.83;5.20;;;;;;;;;;4385749;32;316544;-90
2023/05/06 02:41:07;;;;;;;6.03;5.43;;;;;;;;;;4401668;32;316356;-90
2023/05/06 02:43:34;;;;;;;7.20;5.47;;;;;;;;;;4367843;32;316475;-90
2023/05/06 02:46:02;;;;;;;7.82;5.93;;;;;;;;;;4403786;32;316709;-90
2023/05/06 02:48:29;;;;;;;6.90;5.83;;;;;;;;;;4379181;32;316409;-90
2023/05/06 02:50:56;;;;;;;9.10;5.82;;;;;;;;;;4401512;32;344634;-90
2023/05/06 02:53:23;;;;;;;5.85;5.00;;;;;;;;;;4390416;32;316360;-89
2023/05/06 02:55:50;;;;;;;5.72;5.10;;;;;;;;;;4388290;32;416212;-90
2023/05/06 02:58:17;;;;;;;7.17;4.87;;;;;;;;;;4376280;32;316686;-92
2023/05/06 03:00:44;;;;;;;9.40;4.67;;;;;;;;;;4393657;32;316395;-90
2023/05/06 03:03:12;;;;;;;7.25;5.12;;;;;;;;;;4404063;32;316718;-91
2023/05/06 03:05:39;;;;;;;5.37;4.77;;;;;;;;;;4379207;32;316394;-90
2023/05/06 03:08:07;;;;;;;5.67;4.80;;;;;;;;;;4402170;32;349662;-90
2023/05/06 03:10:34;;;;;;;5.70;5.13;;;;;;;;;;4378659;32;316405;-91
2023/05/06 03:13:01;;;;;;;5.80;4.70;;;;;;;;;;4404508;32;318846;-90
2023/05/06 03:15:30;;;;;;;6.63;4.93;;;;;;;;;;4394009;32;316888;-91
2023/05/06 03:17:57;;;;;;;5.35;4.85;;;;;;;;;;4389811;32;316704;-92
2023/05/06 03:20:27;;;;;;;5.53;5.03;;;;;;;;;;4403893;32;316099;-92
2023/05/06 03:22:54;;;;;;;15.10;6.20;;;;;;;;;;4404630;32;316437;-91
2023/05/06 03:25:21;;;;;;;6.55;4.57;;;;;;;;;;4380036;32;317534;-90
2023/05/06 03:27:48;;;;;;;12.70;5.70;;;;;;;;;;4387940;32;315094;-90
2023/05/06 03:30:18;;;;;;;7.00;5.80;;;;;;;;;;4411123;32;317280;-91
2023/05/06 03:32:45;;;;;;;6.22;5.60;;;;;;;;;;4381450;32;316272;-90
2023/05/06 03:35:12;;;;;;;10.80;5.93;;;;;;;;;;4388357;32;316394;-89
2023/05/06 03:37:41;;;;;;;7.63;5.80;;;;;;;;;;4377499;32;317406;-89
2023/05/06 03:40:09;;;;;;;8.85;5.82;;;;;;;;;;4401718;32;356716;-89
2023/05/06 03:42:36;;;;;;;6.57;5.93;;;;;;;;;;4392633;32;322855;-89
2023/05/06 03:45:04;;;;;;;8.43;5.63;;;;;;;;;;4387979;32;316379;-89
2023/05/06 03:47:31;;;;;;;8.20;5.87;;;;;;;;;;4379801;32;316659;-90
2023/05/06 03:49:59;;;;;;;6.00;5.40;;;;;;;;;;4403201;32;316770;-90
2023/05/06 03:52:26;;;;;;;12.03;6.07;;;;;;;;;;4377804;32;316694;-89
2023/05/06 03:54:55;;;;;;;7.47;6.13;;;;;;;;;;4401590;32;317451;-90
2023/05/06 03:57:22;;;;;;;6.40;5.53;;;;;;;;;;4389062;32;316415;-90
2023/05/06 03:59:51;;;;;;;12.10;6.17;;;;;;;;;;4355905;32;388446;-90
2023/05/06 04:02:18;;;;;;;7.00;5.50;;;;;;;;;;4388351;32;318060;-90
2023/05/06 04:04:45;;;;;;;8.30;5.93;;;;;;;;;;4379371;32;316435;-89
2023/05/06 04:07:13;;;;;;;7.35;6.15;;;;;;;;;;4401861;32;316603;-90
2023/05/06 04:09:40;;;;;;;10.07;5.80;;;;;;;;;;4371831;32;316557;-90
2023/05/06 04:12:09;;;;;;;6.20;5.60;;;;;;;;;;4402451;32;317616;-90
2023/05/06 04:14:36;;;;;;;7.17;6.30;;;;;;;;;;4371687;32;316439;-89
2023/05/06 04:17:04;;;;;;;7.83;6.97;;;;;;;;;;4401864;32;316604;-90
2023/05/06 04:19:32;;;;;;;7.47;6.73;;;;;;;;;;4392432;32;316490;-90
2023/05/06 04:22:01;;;;;;;6.83;6.10;;;;;;;;;;4388795;32;316646;-90
2023/05/06 04:24:30;;;;;;;7.60;6.35;;;;;;;;;;4364480;32;316687;-89
2023/05/06 04:26:57;;;;;;;9.45;6.00;;;;;;;;;;4386995;32;316415;-89
2023/05/06 04:29:25;;;;;;;7.53;6.67;;;;;;;;;;4401816;32;316531;-89
2023/05/06 04:31:54;;;;;;;6.63;5.93;;;;;;;;;;4354911;32;419197;-90
2023/05/06 04:34:21;;;;;;;9.33;6.53;;;;;;;;;;4396254;32;316445;-90
2023/05/06 04:36:48;;;;;;;8.67;6.70;;;;;;;;;;4388028;32;316405;-90
2023/05/06 04:39:16;;;;;;;8.83;6.17;;;;;;;;;;4393767;32;316385;-90
2023/05/06 04:41:46;;;;;;;8.70;7.17;;;;;;;;;;4386649;32;316440;-90
2023/05/06 04:44:13;;;;;;;13.93;7.97;;;;;;;;;;4401384;32;317039;-89
2023/05/06 04:46:43;;;;;;;8.52;7.18;;;;;;;;;;4379064;32;317286;-89
2023/05/06 04:49:10;;;;;;;8.77;5.35;;;;;;;;;;4405050;32;316706;-90
2023/05/06 04:51:37;;;;;;;7.30;6.00;;;;;;;;;;4380202;32;316426;-90
2023/05/06 04:54:04;;;;;;;7.53;5.35;;;;;;;;;;4374200;32;316594;-90
2023/05/06 04:56:31;;;;;;;7.30;5.57;;;;;;;;;;4392799;32;345650;-90
2023/05/06 04:58:58;;;;;;;8.23;6.40;;;;;;;;;;4404851;32;315653;-90
2023/05/06 05:01:25;;;;;;;11.10;7.00;;;;;;;;;;4363846;32;327838;-90
2023/05/06 05:03:54;;;;;;;6.70;6.00;;;;;;;;;;4404129;32;317320;-89
2023/05/06 05:06:21;;;;;;;7.13;6.23;;;;;;;;;;4403609;32;316535;-89
2023/05/06 05:08:47;;;;;;;7.35;6.00;;;;;;;;;;4393546;32;316500;-90
2023/05/06 05:11:15;;;;;;;7.80;5.53;;;;;;;;;;4390355;32;316640;-93
2023/05/06 05:13:43;;;;;;;6.22;5.68;;;;;;;;;;4387949;32;316398;-89
2023/05/06 05:16:11;;;;;;;5.23;4.70;;;;;;;;;;4403836;32;316523;-89
2023/05/06 05:18:39;;;;;;;9.30;4.97;;;;;;;;;;4393818;32;337530;-90
2023/05/06 05:21:08;;;;;;;6.20;4.37;;;;;;;;;;4390320;32;316451;-89
2023/05/06 05:23:34;;;;;;;6.23;4.80;;;;;;;;;;4394104;32;316739;-89
2023/05/06 05:26:02;;;;;;;6.00;4.70;;;;;;;;;;4390290;32;316579;-90
2023/05/06 05:28:29;;;;;;;11.70;5.45;;;;;;;;;;4369038;32;316651;-93
2023/05/06 05:31:02;;;;;;;8.00;5.62;;;;;;;;;;4402542;32;317656;-89
2023/05/06 05:33:29;;;;;;;5.85;4.78;;;;;;;;;;4382341;32;316692;-90
2023/05/06 05:35:57;;;;;;;7.62;5.62;;;;;;;;;;4404155;32;316459;-89
2023/05/06 05:38:25;;;;;;;6.93;5.40;;;;;;;;;;4403016;32;316352;-89
2023/05/06 05:40:52;;;;;;;7.82;5.62;;;;;;;;;;4367194;32;388147;-90
2023/05/06 05:43:21;;;;;;;8.18;4.50;;;;;;;;;;4391245;32;316785;-90
2023/05/06 05:45:48;;;;;;;6.33;5.57;;;;;;;;;;4381512;32;316548;-89
2023/05/06 05:48:15;;;;;;;6.15;4.95;;;;;;;;;;4390680;32;317110;-89
2023/05/06 05:50:42;;;;;;;6.53;4.70;;;;;;;;;;4379471;32;316729;-90
2023/05/06 05:53:09;;;;;;;6.60;5.10;;;;;;;;;;4413732;32;316719;-90
2023/05/06 05:55:38;;;;;;;6.20;4.97;;;;;;;;;;4396744;32;315135;-90
2023/05/06 05:58:09;;;;;;;11.40;5.57;;;;;;;;;;4415015;32;316345;-90
2023/05/06 06:00:37;;;;;;;11.15;5.12;;;;;;;;;;4396278;32;318094;-90
2023/05/06 06:03:07;;;;;;;4.90;4.10;;;;;;;;;;4394000;32;349137;-90
2023/05/06 06:05:34;;;;;;;6.32;4.78;;;;;;;;;;4393926;32;316688;-90
2023/05/06 06:08:01;;;;;;;6.55;5.22;;;;;;;;;;4402905;32;316527;-90
2023/05/06 06:10:28;;;;;;;9.00;5.00;;;;;;;;;;4380514;32;316383;-90
2023/05/06 06:12:57;;;;;;;6.47;5.40;;;;;;;;;;4403472;32;316604;-90
2023/05/06 06:15:24;;;;;;;4.50;4.10;;;;;;;;;;4402624;32;316432;-90
2023/05/06 06:17:55;;;;;;;7.37;4.57;;;;;;;;;;4378194;32;388180;-90
2023/05/06 06:20:22;;;;;;;7.57;5.95;;;;;;;;;;4401864;32;353523;-90
2023/05/06 06:22:49;;;;;;;8.30;5.97;;;;;;;;;;4371637;32;317203;-90
2023/05/06 06:25:16;;;;;;;5.07;4.57;;;;;;;;;;4404540;32;316567;-90
2023/05/06 06:27:43;;;;;;;5.33;4.77;;;;;;;;;;4395402;32;316703;-90
2023/05/06 06:30:12;;;;;;;4.47;3.90;;;;;;;;;;4404448;32;316239;-89
2023/05/06 06:32:50;;;;;;;8.57;5.12;;;;;;;;;;4367506;32;316462;-90
2023/05/06 06:35:18;;;;;;;5.55;4.60;;;;;;;;;;4401730;32;316577;-90
2023/05/06 06:37:44;;;;;;;4.37;3.97;;;;;;;;;;4392286;32;316549;-90
2023/05/06 06:40:13;;;;;;;6.43;5.47;;;;;;;;;;4403063;32;316351;-90
2023/05/06 06:42:42;;;;;;;4.87;4.27;;;;;;;;;;4363574;32;316472;-89
2023/05/06 06:45:14;;;;;;;6.37;4.30;;;;;;;;;;4376494;32;316688;-89
2023/05/06 06:47:41;;;;;;;6.22;4.53;;;;;;;;;;4367612;32;316532;-89
2023/05/06 06:50:11;;;;;;;6.00;4.18;;;;;;;;;;4401614;32;316505;-89
2023/05/06 06:52:38;;;;;;;5.67;4.00;;;;;;;;;;4392820;32;316963;-90
2023/05/06 06:55:06;;;;;;;7.62;4.30;;;;;;;;;;4395884;32;316578;-88
2023/05/06 06:57:33;;;;;;;7.25;3.95;;;;;;;;;;4390586;32;316725;-89
2023/05/06 07:00:00;;;;;;;4.82;3.47;;;;;;;;;;4381366;32;316859;-89
2023/05/06 07:02:29;;;;;;;6.82;4.62;;;;;;;;;;4377051;32;316764;-89
2023/05/06 07:04:56;;;;;;;8.25;5.05;;;;;;;;;;4389723;32;316933;-89
2023/05/06 07:07:23;;;;;;;8.23;5.53;;;;;;;;;;4394298;32;316402;-89
2023/05/06 07:09:50;;;;;;;10.55;4.80;;;;;;;;;;4375229;32;419930;-89
2023/05/06 07:12:17;;;;;;;5.00;4.00;;;;;;;;;;4401809;32;317603;-89
2023/05/06 07:14:44;;;;;;;8.55;3.90;;;;;;;;;;4384130;32;317161;-89
2023/05/06 07:17:11;;;;;;;7.45;4.43;;;;;;;;;;4387719;32;316600;-89
2023/05/06 07:19:40;;;;;;;6.32;3.80;;;;;;;;;;4383682;32;316665;-89
2023/05/06 07:22:07;;;;;;;8.65;4.15;;;;;;;;;;4388098;32;316399;-89
2023/05/06 07:24:34;;;;;;;8.15;4.00;;;;;;;;;;4392632;32;317597;-88
2023/05/06 07:27:01;;;;;;;5.60;4.18;;;;;;;;;;4393644;32;316578;-89
2023/05/06 07:29:28;;;;;;;7.53;4.35;;;;;;;;;;4391472;32;316629;-89
2023/05/06 07:31:55;;;;;;;8.00;4.10;;;;;;;;;;4403006;32;316422;-92
2023/05/06 07:34:22;;;;;;;5.43;4.10;;;;;;;;;;4376325;32;316794;-91
2023/05/06 07:36:51;;;;;;;7.72;4.43;;;;;;;;;;4392221;32;317266;-89
2023/05/06 07:39:17;;;;;;;7.03;5.05;;;;;;;;;;4386664;32;316551;-89
2023/05/06 07:41:44;;;;;;;5.55;4.82;;;;;;;;;;4391655;32;358220;-90
2023/05/06 07:44:11;;;;;;;6.70;4.95;;;;;;;;;;4402277;32;316606;-89
2023/05/06 07:46:41;;;;;;;5.15;4.35;;;;;;;;;;4384686;32;316958;-89
2023/05/06 07:49:08;;;;;;;9.45;6.40;;;;;;;;;;4401096;32;316634;-90
2023/05/06 07:51:35;;;;;;;5.90;4.57;;;;;;;;;;4372128;32;316692;-89
2023/05/06 07:54:03;;;;;;;8.25;4.65;;;;;;;;;;4401445;32;317021;-89
2023/05/06 07:56:31;;;;;;;8.77;3.70;;;;;;;;;;4392145;32;316419;-90
2023/05/06 07:58:59;;;;;;;7.20;4.00;;;;;;;;;;4401222;32;316710;-92
2023/05/06 08:01:27;;;;;;;7.95;4.40;;;;;;;;;;4390584;32;316601;-90
2023/05/06 08:03:55;;;;;;;6.05;4.35;;;;;;;;;;4376373;32;316755;-90
2023/05/06 08:06:21;;;;;;;9.00;4.45;;;;;;;;;;4387665;32;316700;-89
2023/05/06 08:08:49;;;;;;;5.75;3.72;;;;;;;;;;4392192;32;319874;-89
2023/05/06 08:11:18;;;;;;;6.60;4.25;;;;;;;;;;4387269;32;316836;-89
2023/05/06 08:13:45;;;;;;;7.55;4.03;;;;;;;;;;4390800;32;316877;-88
2023/05/06 08:16:13;;;;;;;5.82;4.40;;;;;;;;;;4402743;32;316412;-89
2023/05/06 08:18:42;;;;;;;9.10;5.32;;;;;;;;;;4371999;32;316745;-91
2023/05/06 08:21:09;;;;;;;8.45;5.43;;;;;;;;;;4418875;32;315141;-90
2023/05/06 08:23:36;;;;;;;7.35;5.45;;;;;;;;;;4399674;32;316873;-89
2023/05/06 08:26:04;;;;;;;7.40;5.50;;;;;;;;;;4391777;32;316737;-91
2023/05/06 08:28:33;;;;;;;6.87;4.45;;;;;;;;;;4395867;32;316439;-89
2023/05/06 08:31:00;;;;;;;8.25;4.10;;;;;;;;;;4405282;32;316686;-89
2023/05/06 08:33:27;;;;;;;9.13;4.97;;;;;;;;;;4382632;32;316676;-88
2023/05/06 08:35:56;;;;;;;12.05;5.53;;;;;;;;;;4375853;32;316616;-88
2023/05/06 08:38:24;;;;;;;5.93;5.07;;;;;;;;;;4402827;32;317706;-92
2023/05/06 08:40:54;;;;;;;7.00;4.70;;;;;;;;;;4359734;32;387521;-91
2023/05/06 08:43:27;;;;;;;6.28;4.32;;;;;;;;;;4403826;32;316529;-91
2023/05/06 08:45:56;;;;;;;5.90;4.50;;;;;;;;;;4366879;32;388071;-91
2023/05/06 08:48:23;;;;;;;6.20;5.03;;;;;;;;;;4396047;32;320755;-91
2023/05/06 08:50:51;;;;;;;5.25;4.10;;;;;;;;;;4383190;32;417569;-91
2023/05/06 08:53:19;;;;;;;5.97;4.28;;;;;;;;;;4391246;32;315448;-92
2023/05/06 08:55:48;;;;;;;7.82;5.07;;;;;;;;;;4394593;32;316365;-91
2023/05/06 08:58:17;;;;;;;12.60;4.53;;;;;;;;;;4390721;32;316516;-90
2023/05/06 09:00:45;;;;;;;4.93;4.28;;;;;;;;;;4372477;32;317488;-90
2023/05/06 09:03:14;;;;;;;6.25;4.25;;;;;;;;;;4388512;32;316374;-91
2023/05/06 09:05:41;;;;;;;7.65;4.03;;;;;;;;;;4392235;32;316929;-90
2023/05/06 09:08:10;;;;;;;6.87;4.62;;;;;;;;;;4391001;32;316367;-90
2023/05/06 09:10:43;;;;;;;6.00;4.55;;;;;;;;;;4392883;32;316488;-90
2023/05/06 09:13:12;;;;;;;5.72;4.80;;;;;;;;;;4403754;32;316450;-90
2023/05/06 09:15:46;;;;;;;5.68;4.37;;;;;;;;;;4391862;32;316303;-90
2023/05/06 09:18:15;;;;;;;6.12;3.78;;;;;;;;;;4387837;32;350753;-90
2023/05/06 09:20:44;;;;;;;6.62;4.05;;;;;;;;;;4381023;32;316955;-90
2023/05/06 09:23:12;;;;;;;5.93;3.80;;;;;;;;;;4402802;32;316544;-90
2023/05/06 09:25:39;;;;;;;10.40;3.97;;;;;;;;;;4384996;32;323518;-90
2023/05/06 09:28:08;;;;;;;7.07;4.62;;;;;;;;;;4370010;32;317548;-91
2023/05/06 09:30:40;;;;;;;6.47;3.95;;;;;;;;;;4391721;32;341813;-90
2023/05/06 09:33:08;;;;;;;7.55;4.05;;;;;;;;;;4403410;32;316457;-90
2023/05/06 09:35:41;;;;;;;5.45;3.97;;;;;;;;;;4380195;32;316541;-91
2023/05/06 09:38:09;;;;;;;5.72;3.90;;;;;;;;;;4402289;32;316486;-91
2023/05/06 09:40:37;;;;;;;10.32;3.67;;;;;;;;;;4394341;32;316635;-91
2023/05/06 09:43:04;;;;;;;10.68;4.72;;;;;;;;;;4403097;32;317583;-90
2023/05/06 09:45:32;;;;;;;8.60;3.95;;;;;;;;;;4381060;32;317477;-90
2023/05/06 09:47:59;;;;;;;6.97;4.68;;;;;;;;;;4396139;32;316670;-90
2023/05/06 09:50:26;;;;;;;7.35;3.90;;;;;;;;;;4378734;32;316658;-90
2023/05/06 09:52:55;;;;;;;9.65;3.67;;;;;;;;;;4402999;32;316716;-90
2023/05/06 09:55:25;;;;;;;8.52;3.80;;;;;;;;;;4404378;32;316529;-90
2023/05/06 09:57:52;;;;;;;7.22;3.53;;;;;;;;;;4374776;32;388652;-91
2023/05/06 10:00:25;;;;;;;6.07;4.10;;;;;;;;;;4402556;32;316569;-90
2023/05/06 10:02:53;;;;;;;4.62;3.78;;;;;;;;;;4390817;32;413065;-90
2023/05/06 10:05:20;;;;;;;9.07;3.75;;;;;;;;;;4403978;32;316378;-90
2023/05/06 10:07:50;;;;;;;5.32;4.12;;;;;;;;;;4376719;32;316470;-91
2023/05/06 10:10:19;;;;;;;5.82;3.45;;;;;;;;;;4389893;32;316572;-90
2023/05/06 10:12:48;;;;;;;4.28;3.70;;;;;;;;;;4391255;32;316727;-90
2023/05/06 10:15:15;;;;;;;3.62;3.15;;;;;;;;;;4402319;32;316874;-90
2023/05/06 10:17:46;;;;;;;7.25;4.20;;;;;;;;;;4391629;32;316319;-90
2023/05/06 10:20:14;;;;;;;6.43;3.83;;;;;;;;;;4403520;32;316728;-90
2023/05/06 10:22:52;;;;;;;4.62;3.97;;;;;;;;;;4393334;32;316821;-89
2023/05/06 10:25:30;;;;;;;3.78;3.35;;;;;;;;;;4402782;32;316427;-91
2023/05/06 10:27:57;;;;;;;4.87;3.53;;;;;;;;;;4377343;32;388456;-90
2023/05/06 10:30:24;;;;;;;4.57;3.53;;;;;;;;;;4389606;32;316322;-91
2023/05/06 10:32:55;;;;;;;7.57;3.62;;;;;;;;;;4390196;32;415632;-90
2023/05/06 10:35:33;;;;;;;7.78;4.12;;;;;;;;;;4402140;32;316387;-90
2023/05/06 10:38:02;;;;;;;11.98;4.12;;;;;;;;;;4392682;32;417723;-90
2023/05/06 10:40:31;;;;;;;7.78;3.67;;;;;;;;;;4405285;32;334461;-91
2023/05/06 10:43:26;;;;;;;5.93;3.80;;;;;;;;;;4417489;32;315928;-91
2023/05/06 10:46:01;;;;;;;5.47;3.42;;;;;;;;;;4388719;32;416929;-89
2023/05/06 10:48:29;;;;;;;4.32;3.15;;;;;;;;;;4392411;32;316360;-90
2023/05/06 10:51:26;;;;;;;6.68;3.40;;;;;;;;;;4402523;32;316571;-90
2023/05/06 10:54:02;;;;;;;5.72;3.33;;;;;;;;;;4389881;32;415891;-90
2023/05/06 10:56:32;;;;;;;8.48;3.60;;;;;;;;;;4392123;32;316652;-91
2023/05/06 10:59:06;;;;;;;10.43;3.78;;;;;;;;;;4388924;32;316536;-90
2023/05/06 11:01:34;;;;;;;3.85;3.22;;;;;;;;;;4391473;32;317497;-90
2023/05/06 11:04:08;;;;;;;6.12;3.22;;;;;;;;;;4394317;32;316380;-90
2023/05/06 11:06:37;;;;;;;5.47;3.47;;;;;;;;;;4391285;32;316693;-89
2023/05/06 11:09:05;;;;;;;3.97;3.33;;;;;;;;;;4400711;32;316372;-90
2023/05/06 11:11:51;;;;;;;6.72;3.40;;;;;;;;;;4377788;32;316473;-91
2023/05/06 11:14:28;;;;;;;4.00;2.78;;;;;;;;;;4388952;32;316316;-90
2023/05/06 11:16:56;;;;;;;7.07;3.65;;;;;;;;;;4388671;32;418227;-91
2023/05/06 11:19:25;;;;;;;3.67;3.10;;;;;;;;;;4389304;32;316415;-90
2023/05/06 11:21:54;;;;;;;5.87;3.20;;;;;;;;;;4382366;32;416130;-89
2023/05/06 11:24:27;;;;;;;4.65;3.45;;;;;;;;;;4401226;32;316620;-90
2023/05/06 11:26:58;;;;;;;6.62;3.85;;;;;;;;;;4367826;32;416943;-90
2023/05/06 11:29:26;;;;;;;11.07;3.33;;;;;;;;;;4391940;32;316764;-91
2023/05/06 11:31:53;;;;;;;7.30;4.72;;;;;;;;;;4401380;32;317413;-90
2023/05/06 11:34:26;;;;;;;6.72;3.78;;;;;;;;;;4403900;32;316390;-90
2023/05/06 11:36:59;;;;;;;6.90;3.80;;;;;;;;;;4375027;32;416216;-90
2023/05/06 11:39:30;;;;;;;10.77;4.37;;;;;;;;;;4392342;32;316545;-90
2023/05/06 11:42:04;;;;;;;4.20;3.75;;;;;;;;;;4394854;32;317513;-91
2023/05/06 11:44:33;;;;;;;7.05;4.85;;;;;;;;;;4391048;32;316373;-91
2023/05/06 11:47:03;;;;;;;7.18;3.90;;;;;;;;;;4402658;32;316854;-90
2023/05/06 11:49:32;;;;;;;11.70;5.28;;;;;;;;;;4369306;32;316903;-90
2023/05/06 11:51:58;;;;;;;6.30;3.97;;;;;;;;;;4402300;32;317404;-90
2023/05/06 11:54:27;;;;;;;6.35;5.18;;;;;;;;;;4392893;32;316274;-91
2023/05/06 11:56:57;;;;;;;11.00;5.90;;;;;;;;;;4399996;32;316372;-91
2023/05/06 11:59:33;;;;;;;6.87;4.75;;;;;;;;;;4389130;32;319673;-91
2023/05/06 12:02:02;;;;;;;5.40;4.07;;;;;;;;;;4376938;32;414600;-90
2023/05/06 12:04:37;;;;;;;7.07;4.07;;;;;;;;;;4379591;32;316413;-90
2023/05/06 12:07:06;;;;;;;7.07;3.97;;;;;;;;;;4401265;32;316537;-90
2023/05/06 12:09:34;;;;;;;4.15;3.10;;;;;;;;;;4391924;32;352699;-90
2023/05/06 12:12:04;;;;;;;4.85;3.92;;;;;;;;;;4388977;32;315998;-90
2023/05/06 12:14:36;;;;;;;5.75;3.67;;;;;;;;;;4385373;32;316338;-91
2023/05/06 12:17:02;;;;;;;10.30;3.42;;;;;;;;;;4402214;32;316438;-89
2023/05/06 12:19:31;;;;;;;5.28;3.53;;;;;;;;;;4390684;32;317467;-90
2023/05/06 12:22:16;;;;;;;7.55;3.50;;;;;;;;;;4387637;32;322687;-91
2023/05/06 12:24:51;;;;;;;8.10;3.83;;;;;;;;;;4392133;32;316519;-93
2023/05/06 12:27:32;;;;;;;5.20;3.87;;;;;;;;;;4401537;32;316699;-90
2023/05/06 12:30:02;;;;;;;8.50;3.12;;;;;;;;;;4376133;32;416792;-90
2023/05/06 12:32:31;;;;;;;6.15;3.85;;;;;;;;;;4392549;32;316973;-90
2023/05/06 12:34:59;;;;;;;5.97;3.92;;;;;;;;;;4401219;32;316340;-90
2023/05/06 12:37:29;;;;;;;6.45;3.12;;;;;;;;;;4377236;32;316517;-90
2023/05/06 12:39:57;;;;;;;6.53;3.60;;;;;;;;;;4380548;32;316631;-90
2023/05/06 12:42:24;;;;;;;5.05;3.22;;;;;;;;;;4386479;32;316562;-90
2023/05/06 12:44:51;;;;;;;11.10;3.90;;;;;;;;;;4388053;32;417267;-90
2023/05/06 12:47:21;;;;;;;4.97;3.35;;;;;;;;;;4387321;32;317553;-90
2023/05/06 12:49:50;;;;;;;6.62;3.90;;;;;;;;;;4392589;32;316311;-91
2023/05/06 12:52:18;;;;;;;11.27;3.90;;;;;;;;;;4388403;32;316799;-90
2023/05/06 12:54:46;;;;;;;6.22;3.12;;;;;;;;;;4391789;32;317533;-90
2023/05/06 12:57:15;;;;;;;4.97;3.53;;;;;;;;;;4414784;32;316399;-90
2023/05/06 12:59:43;;;;;;;9.52;4.25;;;;;;;;;;4406660;32;317758;-89
2023/05/06 13:02:10;;;;;;;6.18;4.37;;;;;;;;;;4399960;32;315098;-90
2023/05/06 13:04:39;;;;;;;4.13;3.07;;;;;;;;;;4363039;32;316642;-90
2023/05/06 13:07:07;;;;;;;5.50;3.67;;;;;;;;;;4400237;32;316335;-90
2023/05/06 13:09:34;;;;;;;5.10;3.22;;;;;;;;;;4387215;32;316391;-90
2023/05/06 13:12:03;;;;;;;7.70;3.53;;;;;;;;;;4403664;32;316409;-91
2023/05/06 13:14:30;;;;;;;5.30;4.00;;;;;;;;;;4390999;32;318008;-90
2023/05/06 13:16:59;;;;;;;6.53;3.15;;;;;;;;;;4369138;32;316872;-90
2023/05/06 13:19:27;;;;;;;3.30;2.90;;;;;;;;;;4390694;32;316373;-90
2023/05/06 13:21:57;;;;;;;5.30;3.03;;;;;;;;;;4404533;32;315346;-91
2023/05/06 13:24:24;;;;;;;4.18;3.10;;;;;;;;;;4403435;32;316388;-90
2023/05/06 13:26:52;;;;;;;7.22;3.15;;;;;;;;;;4390599;32;416589;-89
2023/05/06 13:29:22;;;;;;;6.97;3.17;;;;;;;;;;4404496;32;316452;-90
2023/05/06 13:31:49;;;;;;;6.90;3.12;;;;;;;;;;4394749;32;316854;-90
2023/05/06 13:34:16;;;;;;;4.32;2.75;;;;;;;;;;4382660;32;316824;-90
2023/05/06 13:36:45;;;;;;;13.87;4.60;;;;;;;;;;4392180;32;317572;-90
2023/05/06 13:39:14;;;;;;;6.78;3.60;;;;;;;;;;4388249;32;330709;-90
2023/05/06 13:41:43;;;;;;;11.60;3.45;;;;;;;;;;4390717;32;316324;-90
2023/05/06 13:44:10;;;;;;;11.27;3.30;;;;;;;;;;4383207;32;317458;-90
2023/05/06 13:46:38;;;;;;;5.85;3.10;;;;;;;;;;4391311;32;348359;-89
2023/05/06 13:49:09;;;;;;;4.95;3.67;;;;;;;;;;4395875;32;316689;-90
2023/05/06 13:51:36;;;;;;;9.45;3.53;;;;;;;;;;4379011;32;316574;-90
2023/05/06 13:54:03;;;;;;;7.05;3.40;;;;;;;;;;4389579;32;317605;-91
2023/05/06 13:56:35;;;;;;;7.25;3.97;;;;;;;;;;4385202;32;316391;-90
2023/05/06 13:59:02;;;;;;;4.97;3.30;;;;;;;;;;4402095;32;315910;-90
2023/05/06 14:01:29;;;;;;;7.37;3.78;;;;;;;;;;4385469;32;316498;-91
2023/05/06 14:03:57;;;;;;;6.57;3.83;;;;;;;;;;4388810;32;316366;-90
2023/05/06 14:06:24;;;;;;;6.22;3.60;;;;;;;;;;4403553;32;316313;-91
2023/05/06 14:08:51;;;;;;;7.03;4.35;;;;;;;;;;4391501;32;417770;-92
2023/05/06 14:11:20;;;;;;;5.25;3.72;;;;;;;;;;4388879;32;316498;-91
2023/05/06 14:13:51;;;;;;;6.53;3.58;;;;;;;;;;4394220;32;316463;-91
2023/05/06 14:16:18;;;;;;;4.57;3.00;;;;;;;;;;4404331;32;316568;-90
2023/05/06 14:18:45;;;;;;;6.82;3.90;;;;;;;;;;4379576;32;316144;-91
2023/05/06 14:21:12;;;;;;;7.22;4.43;;;;;;;;;;4390066;32;316487;-91
2023/05/06 14:23:39;;;;;;;4.40;3.10;;;;;;;;;;4371759;32;316674;-89
2023/05/06 14:26:07;;;;;;;7.87;3.92;;;;;;;;;;4400769;32;316344;-90
2023/05/06 14:28:34;;;;;;;8.45;3.67;;;;;;;;;;4367298;32;316461;-91
2023/05/06 14:31:02;;;;;;;5.90;3.53;;;;;;;;;;4389917;32;316679;-90
2023/05/06 14:33:29;;;;;;;4.82;2.85;;;;;;;;;;4393366;32;316445;-91
2023/05/06 14:35:57;;;;;;;6.32;3.42;;;;;;;;;;4403042;32;316389;-90
2023/05/06 14:38:25;;;;;;;5.22;3.10;;;;;;;;;;4400239;32;346570;-91